Terminal Aerodrome Forecast
Issued by NWS

Home | Current Version | Previous Version | Text Only | Print | Product List | Glossary On
Versions: 1 2 3 4 5 6 7 8 9 10 11 12 13 14 15 16 17 18 19 20 21 22 23 24 25 26 27 28 29 30 31
918
FTUS43 KLOT 281121
TAFDPA
TAF
KDPA 281121Z 2812/2912 02010KT P6SM SCT012 OVC025
      TEMPO 2812/2814 OVC012
     FM290000 04007KT P6SM FEW009 SCT030 BKN200=

USA.gov is the U.S. government's official web portal to all federal, state and local government web resources and services.